Time;durP1;ratioP1;P1;durP2;ratioP2;P2;SDS_P1;SDS_P2;PMS_P1;PMS_P2;Temp;Humidity;BMP_temperature;BMP_pressure;BME280_temperature;BME280_humidity;BME280_pressure;Samples;Min_cycle;Max_cycle;Signal;HPM_P1;HPM_P2
2021/04/05 00:02:07;;;;;;;40.30;25.60;;;;;;;4.65;67.69;99427.03;5011379;28;20161;-75
2021/04/05 00:04:32;;;;;;;43.78;22.00;;;;;;;4.62;67.75;99429.72;5012430;28;20470;-75
2021/04/05 00:06:58;;;;;;;40.53;23.70;;;;;;;4.66;67.12;99423.53;5012458;28;20397;-76
2021/04/05 00:09:23;;;;;;;36.47;22.38;;;;;;;4.70;67.37;99432.97;5012178;28;20405;-77
2021/04/05 00:11:49;;;;;;;40.92;26.48;;;;;;;4.73;67.42;99420.69;5012450;28;20061;-75
2021/04/05 00:14:14;;;;;;;35.45;21.92;;;;;;;4.74;67.13;99405.84;5017326;28;20489;-76
2021/04/05 00:16:39;;;;;;;33.03;21.80;;;;;;;4.75;67.40;99399.75;5015180;28;20057;-76
2021/04/05 00:19:05;;;;;;;33.78;19.58;;;;;;;4.75;67.14;99381.47;5011831;28;20026;-75
2021/04/05 00:21:30;;;;;;;36.38;21.15;;;;;;;4.77;66.98;99381.41;5010822;28;20458;-75
2021/04/05 00:23:55;;;;;;;38.97;21.77;;;;;;;4.81;66.96;99383.03;5012131;28;20056;-76
2021/04/05 00:26:21;;;;;;;42.97;21.42;;;;;;;4.82;66.93;99374.28;5012326;28;20030;-76
2021/04/05 00:28:48;;;;;;;31.67;20.98;;;;;;;4.82;67.15;99369.03;5012084;28;20041;-74
2021/04/05 00:31:13;;;;;;;37.45;21.52;;;;;;;4.84;66.97;99368.09;5013927;28;20034;-74
2021/04/05 00:33:39;;;;;;;37.28;22.38;;;;;;;4.85;67.11;99361.97;5014113;28;20501;-74
2021/04/05 00:36:05;;;;;;;39.47;22.23;;;;;;;4.88;66.94;99363.63;5013164;28;20064;-75
2021/04/05 00:38:30;;;;;;;34.50;19.38;;;;;;;4.91;66.53;99359.16;5016818;28;20037;-75
2021/04/05 00:41:10;;;;;;;36.28;19.27;;;;;;;4.95;66.51;99371.22;5038537;28;20725;-75
2021/04/05 00:43:36;;;;;;;37.85;20.42;;;;;;;4.93;66.28;99372.19;5013112;28;20120;-75
2021/04/05 00:46:04;;;;;;;37.90;22.00;;;;;;;4.93;66.53;99354.75;5012978;28;20038;-75
2021/04/05 00:48:30;;;;;;;38.30;20.75;;;;;;;4.92;66.26;99350.44;5012314;28;20061;-75
2021/04/05 00:50:58;;;;;;;35.58;23.52;;;;;;;4.97;66.18;99347.63;5012934;28;20057;-75
2021/04/05 00:53:36;;;;;;;35.30;22.05;;;;;;;4.92;66.49;99341.72;5011859;28;20118;-75
2021/04/05 00:56:03;;;;;;;40.70;23.10;;;;;;;4.92;66.72;99329.53;5013293;28;20162;-75
2021/04/05 00:58:29;;;;;;;42.95;22.40;;;;;;;4.94;66.45;99326.84;5012991;28;20120;-74
2021/04/05 01:00:59;;;;;;;34.22;21.80;;;;;;;4.81;67.00;99326.41;4995291;28;20375;-75
2021/04/05 01:03:26;;;;;;;39.25;23.88;;;;;;;4.80;66.94;99322.13;5012200;28;20405;-75
2021/04/05 01:06:03;;;;;;;39.05;22.15;;;;;;;4.80;67.05;99316.88;5012282;28;20081;-75
2021/04/05 01:08:29;;;;;;;33.08;20.83;;;;;;;4.86;66.69;99306.22;5006000;28;20128;-74
2021/04/05 01:10:55;;;;;;;37.05;21.02;;;;;;;4.93;66.46;99294.66;5012094;28;20849;-75
2021/04/05 01:13:21;;;;;;;33.40;20.75;;;;;;;4.98;66.23;99291.06;5012220;28;20121;-73
2021/04/05 01:15:46;;;;;;;43.22;24.45;;;;;;;4.92;66.42;99286.88;5012072;28;20144;-74
2021/04/05 01:18:16;;;;;;;35.38;21.25;;;;;;;4.94;66.61;99279.84;5012004;28;20498;-75
2021/04/05 01:20:42;;;;;;;37.92;21.92;;;;;;;4.93;66.37;99263.31;5009352;28;20038;-75
2021/04/05 01:23:08;;;;;;;35.63;20.30;;;;;;;4.96;66.28;99270.19;5011186;28;20446;-75
2021/04/05 01:25:33;;;;;;;43.35;22.92;;;;;;;5.01;65.98;99264.81;5026586;28;20122;-75
2021/04/05 01:27:59;;;;;;;38.05;21.40;;;;;;;5.02;66.28;99251.72;5011348;28;20037;-75
2021/04/05 01:30:34;;;;;;;43.80;21.35;;;;;;;5.04;66.24;99241.19;5010190;28;20037;-75
2021/04/05 01:33:12;;;;;;;37.22;22.80;;;;;;;5.04;65.99;99233.34;5009951;28;20195;-75
2021/04/05 01:35:42;;;;;;;40.50;24.60;;;;;;;5.06;65.96;99221.09;5010601;28;20052;-75
2021/04/05 01:38:09;;;;;;;41.30;24.13;;;;;;;5.05;66.36;99211.56;5010691;28;20046;-77
2021/04/05 01:40:41;;;;;;;33.15;23.42;;;;;;;5.04;66.06;99210.69;5010503;28;20041;-75
2021/04/05 01:43:07;;;;;;;40.90;24.23;;;;;;;5.05;66.21;99206.34;5013217;28;20033;-74
2021/04/05 01:45:32;;;;;;;49.08;26.05;;;;;;;5.07;66.50;99204.50;5012337;28;20151;-76
2021/04/05 01:47:58;;;;;;;40.53;23.42;;;;;;;5.06;66.64;99200.19;5010568;28;20121;-76
2021/04/05 01:50:24;;;;;;;36.55;23.20;;;;;;;5.08;66.21;99203.59;5009932;28;20058;-75
2021/04/05 01:52:49;;;;;;;41.38;21.85;;;;;;;5.07;66.32;99199.28;5011769;28;20365;-75
2021/04/05 01:55:15;;;;;;;33.15;22.25;;;;;;;5.07;66.32;99191.44;5011042;28;20113;-74
2021/04/05 01:57:40;;;;;;;43.60;22.92;;;;;;;5.08;66.02;99194.00;5010741;28;20026;-75
2021/04/05 02:00:10;;;;;;;41.65;24.67;;;;;;;5.06;66.25;99181.91;5010397;28;20453;-76
2021/04/05 02:02:36;;;;;;;40.38;21.33;;;;;;;5.06;66.24;99177.53;5010288;28;20076;-76
2021/04/05 02:05:06;;;;;;;34.42;21.88;;;;;;;5.11;66.58;99183.44;5010414;28;20042;-76
2021/04/05 02:07:31;;;;;;;36.05;20.13;;;;;;;5.16;66.31;99188.50;5009748;28;20092;-76
2021/04/05 02:09:57;;;;;;;42.53;24.88;;;;;;;5.14;66.14;99188.56;5010195;28;20049;-77
2021/04/05 02:12:22;;;;;;;38.30;21.08;;;;;;;5.18;66.52;99194.53;5010044;28;20080;-76
2021/04/05 02:14:48;;;;;;;41.30;21.70;;;;;;;5.20;66.32;99184.88;5010177;28;20042;-76
2021/04/05 02:17:13;;;;;;;33.88;20.42;;;;;;;5.22;66.08;99177.84;5009781;28;20065;-77
2021/04/05 02:19:38;;;;;;;38.55;21.38;;;;;;;5.17;66.26;99158.88;5005210;28;20457;-77
2021/04/05 02:22:04;;;;;;;46.15;24.08;;;;;;;5.17;66.42;99145.81;5004145;28;20037;-74
2021/04/05 02:24:31;;;;;;;34.60;22.17;;;;;;;5.16;66.15;99157.13;5008620;28;20041;-77
2021/04/05 02:26:57;;;;;;;45.83;23.30;;;;;;;5.16;66.64;99136.22;4996994;28;20482;-76
2021/04/05 02:29:22;;;;;;;43.97;22.73;;;;;;;5.15;66.80;99135.41;4991317;28;20046;-76
2021/04/05 02:31:48;;;;;;;33.00;21.98;;;;;;;5.15;66.63;99135.41;4991761;28;20030;-76
2021/04/05 02:34:14;;;;;;;40.47;23.75;;;;;;;5.15;66.65;99137.16;5011654;28;20034;-77
2021/04/05 02:36:40;;;;;;;36.55;22.73;;;;;;;5.13;66.96;99121.53;5013799;28;20038;-76
2021/04/05 02:39:08;;;;;;;39.22;23.05;;;;;;;5.17;66.60;99119.66;5012311;28;20398;-77
2021/04/05 02:41:36;;;;;;;35.75;23.33;;;;;;;5.18;66.59;99105.69;5010944;28;20052;-77
2021/04/05 02:44:04;;;;;;;36.90;22.20;;;;;;;5.14;66.63;99099.72;5009886;28;20054;-77
2021/04/05 02:46:31;;;;;;;40.45;23.40;;;;;;;5.15;66.81;99090.97;5009724;28;20072;-77
2021/04/05 02:49:00;;;;;;;43.28;24.35;;;;;;;5.14;66.92;99085.78;5009395;28;20032;-74
2021/04/05 02:51:26;;;;;;;35.83;22.13;;;;;;;5.14;66.72;99077.97;5010306;28;20117;-76
2021/04/05 02:54:00;;;;;;;43.97;24.60;;;;;;;5.14;66.96;99072.72;5010344;28;20061;-76
2021/04/05 02:56:26;;;;;;;35.97;21.35;;;;;;;5.16;66.77;99069.16;5010201;28;20148;-76
2021/04/05 02:58:53;;;;;;;49.30;23.05;;;;;;;5.15;66.94;99043.94;5007735;28;20030;-76
2021/04/05 03:01:20;;;;;;;36.65;22.10;;;;;;;5.19;66.72;99042.03;5009515;28;20053;-77
2021/04/05 03:03:46;;;;;;;36.90;21.80;;;;;;;5.23;66.31;99043.63;5010101;28;20665;-76
2021/04/05 03:06:19;;;;;;;46.38;22.25;;;;;;;5.23;66.40;99043.63;5009961;28;20041;-76
2021/04/05 03:08:45;;;;;;;32.53;22.05;;;;;;;5.22;66.57;99036.72;5010191;28;20038;-74
2021/04/05 03:11:13;;;;;;;44.35;20.95;;;;;;;5.24;66.66;99040.13;5010867;28;20533;-75
2021/04/05 03:13:40;;;;;;;34.97;22.55;;;;;;;5.23;66.67;99024.50;5010347;28;20462;-75
2021/04/05 03:16:10;;;;;;;36.40;21.08;;;;;;;5.24;66.64;99024.47;5010283;28;20183;-75
2021/04/05 03:18:37;;;;;;;39.40;22.05;;;;;;;5.26;66.41;99003.47;5004826;28;20058;-75
2021/04/05 03:21:08;;;;;;;38.05;23.02;;;;;;;5.27;66.01;99016.47;5008687;28;20434;-75
2021/04/05 03:23:34;;;;;;;37.30;21.75;;;;;;;5.29;65.88;99006.81;5009546;28;20502;-75
2021/04/05 03:26:00;;;;;;;35.97;21.23;;;;;;;5.34;66.24;99010.09;5009775;28;20064;-75
2021/04/05 03:28:25;;;;;;;43.90;19.48;;;;;;;5.34;66.39;99012.72;5009540;28;20089;-76
2021/04/05 03:31:00;;;;;;;35.85;21.00;;;;;;;5.34;66.12;99002.25;5009071;28;20029;-76
2021/04/05 03:33:34;;;;;;;45.83;21.70;;;;;;;5.32;66.47;99005.84;5009997;28;20026;-75
2021/04/05 03:36:05;;;;;;;32.13;20.73;;;;;;;5.26;66.13;99003.47;5010003;28;20030;-75
2021/04/05 03:38:30;;;;;;;34.72;22.00;;;;;;;5.23;66.57;98991.38;5009615;28;20030;-75
2021/04/05 03:40:59;;;;;;;37.22;19.50;;;;;;;5.22;66.47;98987.06;5009805;28;20034;-75
2021/04/05 03:43:47;;;;;;;29.92;18.02;;;;;;;5.21;66.82;98992.34;5009682;28;20045;-75
2021/04/05 03:46:17;;;;;;;30.65;19.05;;;;;;;5.20;66.84;98983.66;5007948;28;20066;-76
2021/04/05 03:49:19;;;;;;;33.13;17.98;;;;;;;5.22;66.53;98980.97;5009067;28;20041;-75
2021/04/05 03:51:49;;;;;;;36.67;19.15;;;;;;;5.26;66.68;98987.78;5009306;28;20030;-74
2021/04/05 03:54:17;;;;;;;31.20;19.10;;;;;;;5.29;66.50;98975.47;5011361;28;20034;-76
2021/04/05 03:56:51;;;;;;;28.48;16.65;;;;;;;5.38;66.43;98982.91;5012330;28;20076;-76
2021/04/05 03:59:35;;;;;;;36.25;18.17;;;;;;;5.43;66.27;98974.03;5012319;28;20108;-76
2021/04/05 04:02:23;;;;;;;33.78;20.17;;;;;;;5.48;66.20;98972.94;5011663;28;20029;-75
2021/04/05 04:04:59;;;;;;;31.55;16.17;;;;;;;5.51;66.10;98964.97;5013513;28;20034;-74
2021/04/05 04:07:35;;;;;;;32.13;17.70;;;;;;;5.58;65.82;98969.00;5012762;28;20723;-75
2021/04/05 04:10:05;;;;;;;31.10;17.33;;;;;;;5.57;66.07;98961.25;5012658;28;20053;-75
2021/04/05 04:12:33;;;;;;;28.80;17.30;;;;;;;5.60;66.21;98955.88;5013021;28;20041;-75
2021/04/05 04:15:00;;;;;;;30.85;17.00;;;;;;;5.62;66.05;98947.97;5012789;28;20022;-75
2021/04/05 04:17:26;;;;;;;31.23;17.27;;;;;;;5.62;66.10;98942.75;5012573;28;20054;-75
2021/04/05 04:19:53;;;;;;;26.90;16.77;;;;;;;5.63;66.12;98939.22;5008183;28;20041;-75
2021/04/05 04:22:19;;;;;;;48.00;22.88;;;;;;;5.64;66.72;98933.94;5007576;28;20041;-75
2021/04/05 04:24:45;;;;;;;31.40;17.58;;;;;;;5.60;66.86;98921.91;5012844;28;20038;-75
2021/04/05 04:27:14;;;;;;;32.63;17.92;;;;;;;5.59;67.35;98917.59;5011832;28;20042;-75
2021/04/05 04:29:39;;;;;;;30.95;16.40;;;;;;;5.56;67.47;98923.81;5011919;28;20113;-75
2021/04/05 04:32:05;;;;;;;36.25;17.20;;;;;;;5.57;66.96;98906.34;5012743;28;20636;-75
2021/04/05 04:34:31;;;;;;;30.95;17.30;;;;;;;5.53;68.00;98904.75;5012640;28;20049;-75
2021/04/05 04:37:02;;;;;;;33.42;16.63;;;;;;;5.56;67.49;98896.78;5012754;28;20393;-74
2021/04/05 04:39:29;;;;;;;29.25;16.85;;;;;;;5.57;67.50;98896.72;5014040;28;20037;-75
2021/04/05 04:41:54;;;;;;;27.58;17.40;;;;;;;5.59;67.80;98896.69;5012943;28;20026;-76
2021/04/05 04:44:19;;;;;;;36.72;19.48;;;;;;;5.59;67.53;98896.69;5013113;28;20078;-76
2021/04/05 04:46:45;;;;;;;31.67;17.25;;;;;;;5.54;67.57;98882.97;5012270;28;20401;-76
2021/04/05 04:49:11;;;;;;;31.45;17.20;;;;;;;5.55;67.76;98885.47;5027197;28;20467;-76
2021/04/05 04:51:38;;;;;;;39.90;20.70;;;;;;;5.50;68.02;98877.00;5011160;28;20034;-77
2021/04/05 04:54:05;;;;;;;33.50;19.02;;;;;;;5.48;68.66;98875.38;5011752;28;20037;-77
2021/04/05 04:56:31;;;;;;;34.47;18.42;;;;;;;5.49;68.39;98874.44;5035050;28;20524;-75
2021/04/05 04:58:59;;;;;;;35.67;19.75;;;;;;;5.49;68.44;98882.28;5031104;28;20025;-75
2021/04/05 05:01:26;;;;;;;33.17;18.60;;;;;;;5.50;68.54;98878.75;5031394;28;20121;-76
2021/04/05 05:03:56;;;;;;;30.50;18.75;;;;;;;5.50;68.60;98879.59;5030335;28;20034;-76
2021/04/05 05:06:23;;;;;;;40.20;21.23;;;;;;;5.48;68.89;98884.03;5031135;28;20041;-76
2021/04/05 05:08:49;;;;;;;34.15;18.25;;;;;;;5.51;68.87;98872.59;5030977;28;20034;-76
2021/04/05 05:11:16;;;;;;;37.05;18.10;;;;;;;5.52;68.62;98884.78;5030241;28;20030;-76
2021/04/05 05:13:41;;;;;;;33.60;18.58;;;;;;;5.52;68.55;98882.16;5014796;28;20445;-77
2021/04/05 05:16:08;;;;;;;33.03;18.50;;;;;;;5.47;69.10;98882.38;5011786;28;20050;-76
2021/04/05 05:18:35;;;;;;;35.85;20.60;;;;;;;5.47;69.45;98879.75;5013788;28;20053;-75
2021/04/05 05:21:11;;;;;;;47.05;20.77;;;;;;;5.45;69.45;98870.28;5014428;28;20555;-74
2021/04/05 05:23:39;;;;;;;30.42;18.60;;;;;;;5.42;69.35;98867.81;5013879;28;20105;-76
2021/04/05 05:26:05;;;;;;;36.85;22.17;;;;;;;5.44;69.69;98864.22;5012272;28;20038;-76
2021/04/05 05:28:35;;;;;;;25.80;17.77;;;;;;;5.45;69.05;98867.66;5012487;28;20040;-76
2021/04/05 05:31:02;;;;;;;38.92;19.63;;;;;;;5.44;69.41;98866.81;5011785;28;20029;-76
2021/04/05 05:33:27;;;;;;;41.38;21.30;;;;;;;5.42;69.54;98860.81;5011454;28;20049;-75
2021/04/05 05:35:54;;;;;;;40.08;19.92;;;;;;;5.43;69.70;98864.25;5010764;28;20432;-75
2021/04/05 05:38:22;;;;;;;34.50;20.13;;;;;;;5.42;69.82;98859.97;5009657;28;20512;-75
2021/04/05 05:40:49;;;;;;;33.50;20.85;;;;;;;5.43;69.60;98861.66;5011168;28;20038;-75
2021/04/05 05:43:35;;;;;;;35.13;19.08;;;;;;;5.46;70.05;98858.88;5012274;28;20037;-75
2021/04/05 05:46:09;;;;;;;39.95;19.80;;;;;;;5.45;70.50;98863.28;5017029;28;20501;-76
2021/04/05 05:49:00;;;;;;;38.15;23.35;;;;;;;5.47;70.57;98851.00;5013440;28;20038;-76
2021/04/05 05:51:58;;;;;;;31.33;19.00;;;;;;;5.46;70.54;98845.81;5011749;28;20063;-76
2021/04/05 05:54:46;;;;;;;36.28;21.20;;;;;;;5.45;71.42;98844.97;5013211;28;20366;-77
2021/04/05 05:57:21;;;;;;;44.25;26.15;;;;;;;5.50;72.07;98840.41;5010377;28;20065;-77
2021/04/05 05:59:54;;;;;;;38.88;22.38;;;;;;;5.54;71.81;98836.75;5009891;28;20088;-76
2021/04/05 06:02:38;;;;;;;48.63;23.50;;;;;;;5.55;72.68;98846.28;5015909;28;20473;-78
2021/04/05 06:05:26;;;;;;;36.80;23.27;;;;;;;5.58;72.75;98838.28;5010244;28;20405;-75
2021/04/05 06:08:09;;;;;;;45.20;26.50;;;;;;;5.60;72.59;98833.00;5017058;28;20029;-77
2021/04/05 06:10:47;;;;;;;50.97;28.30;;;;;;;5.56;73.55;98826.19;5032756;28;20508;-78
2021/04/05 06:13:25;;;;;;;47.28;26.05;;;;;;;5.60;73.52;98833.00;5034192;28;20160;-77
2021/04/05 06:16:18;;;;;;;54.67;27.30;;;;;;;5.65;72.97;98832.81;5019481;28;20481;-77
2021/04/05 06:19:25;;;;;;;49.90;26.58;;;;;;;5.71;73.23;98828.16;5015142;28;20153;-76
2021/04/05 06:22:11;;;;;;;;;;;;;;;5.66;73.53;98835.34;5012073;28;20042;-76
2021/04/05 06:24:43;;;;;;;42.53;25.15;;;;;;;5.69;73.37;98816.91;5029685;28;20257;-77
2021/04/05 06:27:14;;;;;;;43.03;26.13;;;;;;;5.71;73.17;98817.69;5031750;28;20041;-76
2021/04/05 06:30:03;;;;;;;59.28;27.13;;;;;;;5.75;73.12;98821.84;5030664;28;20037;-78
2021/04/05 06:32:42;;;;;;;50.38;25.90;;;;;;;5.79;73.62;98826.03;5033185;28;20129;-77
2021/04/05 06:35:22;;;;;;;51.97;25.70;;;;;;;5.80;73.66;98811.19;5038485;28;20057;-77
2021/04/05 06:37:58;;;;;;;44.38;28.77;;;;;;;5.82;73.42;98809.34;5038448;28;20116;-76
2021/04/05 06:40:28;;;;;;;42.67;27.58;;;;;;;5.86;73.90;98792.63;5029738;28;20037;-77
2021/04/05 06:43:08;;;;;;;59.47;27.80;;;;;;;5.87;74.27;98799.53;5032023;28;20034;-76
2021/04/05 06:46:00;;;;;;;50.47;28.10;;;;;;;5.85;74.88;98793.50;5029431;28;20146;-76
2021/04/05 06:48:50;;;;;;;59.33;28.52;;;;;;;5.83;74.75;98795.34;5029181;28;20037;-74
2021/04/05 06:52:14;;;;;;;49.53;25.55;;;;;;;5.84;75.36;98804.06;5029180;28;20423;-76
2021/04/05 06:55:04;;;;;;;51.85;28.25;;;;;;;5.87;75.63;98802.13;4987413;28;20035;-76
2021/04/05 06:58:12;;;;;;;48.67;27.08;;;;;;;5.87;75.61;98790.84;4987305;28;20800;-75
2021/04/05 07:00:55;;;;;;;50.40;27.60;;;;;;;5.88;76.01;98789.91;5026005;28;20045;-77
2021/04/05 07:03:39;;;;;;;42.65;26.42;;;;;;;5.92;75.22;98788.84;5030658;28;20033;-76
2021/04/05 07:06:23;;;;;;;54.08;26.80;;;;;;;6.00;75.80;98782.34;5030394;28;20392;-76
2021/04/05 07:08:56;;;;;;;40.35;26.15;;;;;;;6.05;75.46;98779.53;5029440;28;20124;-77
2021/04/05 07:11:44;;;;;;;45.25;26.60;;;;;;;6.06;75.72;98770.78;5030205;28;20037;-76
2021/04/05 07:14:37;;;;;;;52.85;27.73;;;;;;;6.08;75.94;98762.84;5027939;28;20049;-76
2021/04/05 07:17:23;;;;;;;49.55;25.63;;;;;;;6.10;76.01;98761.84;5029533;28;20065;-76
2021/04/05 07:20:00;;;;;;;37.53;23.70;;;;;;;6.19;75.40;98750.09;5029183;28;20037;-76
2021/04/05 07:22:28;;;;;;;46.25;25.65;;;;;;;6.26;75.47;98748.06;5028866;28;20033;-76
2021/04/05 07:25:05;;;;;;;48.75;25.52;;;;;;;6.26;75.15;98743.66;5029456;28;20037;-75
2021/04/05 07:27:56;;;;;;;41.05;27.05;;;;;;;6.29;75.37;98737.44;5027236;28;20029;-76
2021/04/05 07:30:41;;;;;;;53.80;27.15;;;;;;;6.32;74.94;98739.88;5032608;28;20663;-75
2021/04/05 07:33:22;;;;;;;48.60;26.85;;;;;;;6.35;75.17;98724.91;5032825;28;20029;-75
2021/04/05 07:36:05;;;;;;;46.63;27.35;;;;;;;6.36;75.22;98717.88;5033087;28;20037;-76
2021/04/05 07:38:30;;;;;;;44.53;26.33;;;;;;;6.35;75.27;98727.50;5033387;28;20034;-76
2021/04/05 07:41:33;;;;;;;54.25;26.70;;;;;;;6.36;75.10;98729.19;5033751;28;20112;-75
2021/04/05 07:44:29;;;;;;;47.90;28.70;;;;;;;6.43;75.04;98737.59;5033487;28;20041;-76
2021/04/05 07:47:14;;;;;;;57.45;26.10;;;;;;;6.40;75.16;98736.00;5034162;28;20564;-76
2021/04/05 07:49:49;;;;;;;46.20;24.98;;;;;;;6.47;74.92;98738.28;5033544;28;20045;-76
2021/04/05 07:52:32;;;;;;;42.20;24.98;;;;;;;6.54;74.55;98737.91;5033715;28;20108;-75
2021/04/05 07:54:59;;;;;;;48.25;25.65;;;;;;;6.58;73.90;98726.38;5033566;28;20033;-75
2021/04/05 07:57:32;;;;;;;50.42;27.52;;;;;;;6.57;74.42;98724.69;5032906;28;20056;-75
2021/04/05 08:00:35;;;;;;;39.22;24.77;;;;;;;6.65;73.78;98717.28;5032055;28;20037;-75
2021/04/05 08:03:08;;;;;;;39.05;23.58;;;;;;;6.72;73.33;98709.97;5031176;28;20117;-76
2021/04/05 08:05:52;;;;;;;41.17;24.85;;;;;;;6.75;73.20;98699.31;5036801;28;20082;-76
2021/04/05 08:08:39;;;;;;;51.25;25.10;;;;;;;6.82;73.35;98705.94;5041510;28;20600;-77
2021/04/05 08:11:38;;;;;;;40.53;22.60;;;;;;;6.87;72.46;98716.19;5023350;28;20025;-77
2021/04/05 08:14:22;;;;;;;35.95;22.58;;;;;;;6.91;72.81;98722.13;5016809;28;20041;-75
2021/04/05 08:17:21;;;;;;;45.33;26.73;;;;;;;6.97;72.57;98733.13;5018541;28;20113;-75
2021/04/05 08:20:09;;;;;;;41.60;23.80;;;;;;;6.97;72.44;98714.78;5013532;28;20544;-75
2021/04/05 08:22:59;;;;;;;34.00;21.52;;;;;;;7.01;72.47;98723.31;5005102;28;20513;-74
2021/04/05 08:26:02;;;;;;;44.85;23.88;;;;;;;6.96;72.95;98730.59;5012809;28;20042;-74
2021/04/05 08:28:41;;;;;;;44.42;23.20;;;;;;;6.91;74.20;98722.94;5027347;28;20424;-76
2021/04/05 08:31:27;;;;;;;48.80;23.08;;;;;;;6.76;75.24;98719.34;5032680;28;20036;-76
2021/04/05 08:34:01;;;;;;;;;;;;;;;6.69;75.35;98714.50;5033312;28;20029;-75
2021/04/05 08:36:51;;;;;;;32.72;20.38;;;;;;;6.56;76.45;98728.22;5031894;28;19917;-75
2021/04/05 08:39:30;;;;;;;35.25;19.38;;;;;;;6.54;77.05;98732.66;5034640;28;20125;-75
2021/04/05 08:42:07;;;;;;;37.88;20.95;;;;;;;6.48;77.72;98740.84;5032888;28;20043;-76
2021/04/05 08:44:45;;;;;;;35.95;20.85;;;;;;;6.36;78.14;98778.94;5032089;28;20037;-77
2021/04/05 08:47:17;;;;;;;29.02;14.57;;;;;;;6.14;76.93;98788.72;5032150;28;20095;-76
2021/04/05 08:49:46;;;;;;;27.80;12.20;;;;;;;5.87;77.31;98806.53;5033538;28;20531;-76
2021/04/05 08:52:12;;;;;;;20.83;11.55;;;;;;;5.77;77.86;98813.94;5042090;28;20049;-76
2021/04/05 08:54:40;;;;;;;19.00;11.10;;;;;;;5.58;76.72;98812.13;5029209;28;20037;-75
2021/04/05 08:57:19;;;;;;;10.95;5.45;;;;;;;5.26;74.52;98818.78;5025346;28;20026;-77
2021/04/05 09:00:09;;;;;;;6.30;3.38;;;;;;;5.10;75.38;98834.28;5032951;28;20117;-76
2021/04/05 09:02:43;;;;;;;7.43;3.35;;;;;;;5.05;75.86;98845.84;5023216;28;20052;-76
2021/04/05 09:05:12;;;;;;;9.63;3.80;;;;;;;5.06;76.53;98852.75;5024308;28;20068;-77
2021/04/05 09:08:04;;;;;;;10.68;3.53;;;;;;;4.95;76.59;98848.81;5031112;28;20029;-76
2021/04/05 09:10:43;;;;;;;5.07;2.88;;;;;;;4.86;75.93;98851.81;5022163;28;20443;-74
2021/04/05 09:13:16;;;;;;;8.75;3.72;;;;;;;4.85;76.62;98849.25;5030458;28;20042;-76
2021/04/05 09:16:01;;;;;;;7.10;3.22;;;;;;;4.83;76.39;98857.16;5014029;28;20037;-76
2021/04/05 09:19:06;;;;;;;6.75;3.38;;;;;;;4.74;76.90;98865.38;5028868;28;20084;-74
2021/04/05 09:21:48;;;;;;;6.15;3.65;;;;;;;4.76;78.11;98863.53;5031924;28;20025;-76
2021/04/05 09:24:50;;;;;;;6.10;4.13;;;;;;;4.83;77.81;98859.78;5023302;28;20390;-73
2021/04/05 09:27:51;;;;;;;7.65;2.63;;;;;;;4.81;77.10;98872.03;5052116;28;20503;-73
2021/04/05 09:30:30;;;;;;;20.05;4.93;;;;;;;4.81;78.05;98876.41;5032524;28;20056;-74
2021/04/05 09:33:13;;;;;;;5.22;2.28;;;;;;;4.80;77.87;98887.75;5016385;28;20038;-77
2021/04/05 09:35:57;;;;;;;6.70;3.47;;;;;;;4.77;77.96;98883.50;5043796;28;20034;-75
2021/04/05 09:38:48;;;;;;;10.15;3.60;;;;;;;4.49;76.98;98897.66;5030647;28;20072;-75
2021/04/05 09:41:31;;;;;;;5.80;2.67;;;;;;;4.31;76.46;98919.25;5026287;28;20038;-77
2021/04/05 09:44:25;;;;;;;10.43;3.40;;;;;;;4.26;76.06;98947.28;5010343;28;20034;-69
2021/04/05 09:46:59;;;;;;;4.38;2.10;;;;;;;4.13;73.73;98943.41;5017220;28;20444;-69
2021/04/05 09:49:52;;;;;;;9.95;2.92;;;;;;;3.98;74.03;98963.06;5021411;28;20041;-69
2021/04/05 09:52:45;;;;;;;7.28;3.42;;;;;;;3.95;73.51;98960.56;5019679;28;20116;-69
2021/04/05 09:55:12;;;;;;;8.13;2.75;;;;;;;3.96;74.42;98973.53;5021056;28;20040;-69
2021/04/05 09:57:43;;;;;;;6.15;2.75;;;;;;;3.98;74.04;98981.31;5015630;28;20033;-69
2021/04/05 10:00:13;;;;;;;8.75;2.55;;;;;;;3.97;75.04;98987.44;5008434;28;20040;-69
2021/04/05 10:02:47;;;;;;;12.95;2.70;;;;;;;3.94;74.84;98990.13;5010254;28;20064;-69
2021/04/05 10:05:14;;;;;;;7.00;3.13;;;;;;;3.90;75.90;98999.84;5009618;28;20505;-69
2021/04/05 10:07:43;;;;;;;6.00;2.42;;;;;;;3.81;75.89;99007.97;5007276;28;20061;-69
2021/04/05 10:10:11;;;;;;;13.85;2.67;;;;;;;3.59;73.48;99015.66;5008696;28;20038;-69
2021/04/05 10:12:47;;;;;;;16.48;2.92;;;;;;;3.42;74.10;99027.50;4998246;28;20065;-70
2021/04/05 10:15:17;;;;;;;;;;;;;;;3.37;74.73;99033.75;4998633;28;20038;-77
2021/04/05 10:18:22;;;;;;;18.23;8.05;;;;;;;3.41;75.06;99027.53;5015464;28;19918;-77
2021/04/05 10:20:51;;;;;;;9.02;2.97;;;;;;;3.44;75.47;99032.66;5008119;28;20046;-77
2021/04/05 10:23:21;;;;;;;10.70;3.40;;;;;;;3.45;75.28;99036.97;5010067;28;20050;-77
2021/04/05 10:26:41;;;;;;;6.75;3.28;;;;;;;3.59;75.48;99044.31;5026502;28;20100;-79
2021/04/05 10:29:15;;;;;;;12.80;3.33;;;;;;;3.54;74.18;99044.47;5009505;28;20609;-80
2021/04/05 10:31:59;;;;;;;12.90;3.40;;;;;;;3.52;74.87;99050.63;5034722;28;20100;-80
2021/04/05 10:35:03;;;;;;;9.63;3.05;;;;;;;3.51;72.39;99054.16;5017722;28;20039;-82
2021/04/05 10:38:13;;;;;;;6.45;3.05;;;;;;;3.52;71.68;99051.50;5048869;28;20036;-80
2021/04/05 10:40:39;;;;;;;10.60;4.30;;;;;;;3.58;71.84;99064.34;4989881;28;20121;-77
2021/04/05 10:43:11;;;;;;;11.57;3.67;;;;;;;3.55;71.33;99061.00;5039679;28;20455;-78
2021/04/05 10:45:58;;;;;;;12.38;4.32;;;;;;;3.57;72.16;99078.28;5016349;28;20051;-78
2021/04/05 10:48:44;;;;;;;14.82;4.10;;;;;;;3.60;72.98;99078.16;5027586;28;20038;-77
2021/04/05 10:51:27;;;;;;;12.75;4.53;;;;;;;3.62;73.01;99086.78;5022275;28;20144;-78
2021/04/05 10:54:25;;;;;;;10.30;3.28;;;;;;;3.45;71.11;99091.69;5062936;28;20052;-78
2021/04/05 10:56:58;;;;;;;12.60;4.88;;;;;;;3.25;70.93;99107.06;5033037;28;20060;-80
2021/04/05 10:59:46;;;;;;;6.80;1.90;;;;;;;3.18;69.21;99103.81;5057858;28;20048;-78
2021/04/05 11:02:33;;;;;;;6.57;2.10;;;;;;;3.21;69.54;99114.97;5060265;28;21252;-76
2021/04/05 11:05:21;;;;;;;11.95;2.80;;;;;;;3.19;69.26;99119.38;5049627;28;20741;-77
2021/04/05 11:07:53;;;;;;;6.32;2.72;;;;;;;3.16;69.58;99111.66;5043127;28;20048;-79
2021/04/05 11:10:22;;;;;;;12.75;3.15;;;;;;;3.09;69.98;99106.69;5039688;28;20069;-79
2021/04/05 11:13:04;;;;;;;7.05;3.20;;;;;;;3.19;71.07;99119.38;5053171;28;20124;-77
2021/04/05 11:15:31;;;;;;;7.80;2.80;;;;;;;3.27;69.95;99121.75;5022715;28;20128;-79
2021/04/05 11:18:01;;;;;;;8.73;2.90;;;;;;;3.36;70.57;99112.81;5019742;28;20495;-79
2021/04/05 11:20:31;;;;;;;9.18;4.15;;;;;;;3.40;68.98;99117.03;5017109;28;20509;-79
2021/04/05 11:23:05;;;;;;;12.80;4.72;;;;;;;3.47;69.67;99110.75;5041115;28;20118;-78
2021/04/05 11:25:34;;;;;;;5.43;3.08;;;;;;;3.61;68.85;99115.50;5038751;28;20128;-79
2021/04/05 11:28:08;;;;;;;10.55;3.65;;;;;;;3.57;67.88;99130.41;5017028;28;20044;-79
2021/04/05 11:30:36;;;;;;;9.50;3.70;;;;;;;3.65;68.94;99122.34;5032608;28;20065;-79
2021/04/05 11:33:10;;;;;;;7.63;3.42;;;;;;;3.79;67.60;99122.75;5025571;28;20022;-78
2021/04/05 11:35:40;;;;;;;9.00;3.70;;;;;;;3.73;67.28;99125.53;5029670;28;20041;-77
2021/04/05 11:38:10;;;;;;;7.10;2.47;;;;;;;3.78;67.79;99134.06;5033038;28;20056;-78
2021/04/05 11:40:36;;;;;;;9.20;2.72;;;;;;;3.71;68.56;99142.13;5041365;28;20045;-79
2021/04/05 11:43:12;;;;;;;12.50;3.67;;;;;;;3.59;68.78;99145.97;5048495;28;20033;-79
2021/04/05 11:45:43;;;;;;;9.20;2.92;;;;;;;3.41;70.53;99174.28;5032966;28;20069;-76
2021/04/05 11:48:23;;;;;;;8.57;2.88;;;;;;;3.21;71.36;99181.84;5048169;28;20033;-80
2021/04/05 11:50:52;;;;;;;9.35;3.10;;;;;;;2.98;69.03;99167.75;5028102;28;20038;-78
2021/04/05 11:53:32;;;;;;;12.55;2.55;;;;;;;2.83;70.58;99169.91;5038847;28;20323;-82
2021/04/05 11:56:07;;;;;;;6.50;3.05;;;;;;;3.00;70.08;99180.69;5050837;28;20044;-80
2021/04/05 11:58:39;;;;;;;9.75;3.38;;;;;;;3.16;69.72;99168.97;5033851;28;20049;-78
2021/04/05 12:01:16;;;;;;;6.82;3.17;;;;;;;3.37;71.18;99164.00;5050024;28;20040;-80
2021/04/05 12:03:51;;;;;;;4.50;1.98;;;;;;;3.63;70.21;99165.84;5048975;28;20061;-78
2021/04/05 12:06:21;;;;;;;7.00;2.65;;;;;;;3.86;70.16;99154.66;5029348;28;20112;-79